createdAt,value
2023-09-27T00:00:33.080Z,99426.90
2023-09-27T00:03:22.653Z,99428.95
2023-09-27T00:05:51.609Z,99426.86
2023-09-27T00:08:21.178Z,99428.86
2023-09-27T00:10:50.224Z,99431.91
2023-09-27T00:13:19.022Z,99429.63
2023-09-27T00:15:49.412Z,99431.15
2023-09-27T00:18:18.123Z,99429.00
2023-09-27T00:20:46.872Z,99426.88
2023-09-27T00:23:16.010Z,99425.81
2023-09-27T00:25:44.664Z,99425.94
2023-09-27T00:28:13.297Z,99426.42
2023-09-27T00:30:42.534Z,99425.54
2023-09-27T00:33:11.163Z,99420.98
2023-09-27T00:35:41.165Z,99420.98
2023-09-27T00:38:12.043Z,99419.81
2023-09-27T00:40:48.905Z,99418.63
2023-09-27T00:43:32.761Z,99417.77
2023-09-27T00:46:03.604Z,99418.49
2023-09-27T00:48:34.239Z,99415.20
2023-09-27T00:51:05.136Z,99413.13
2023-09-27T00:53:35.617Z,99414.45
2023-09-27T00:56:05.660Z,99413.17
2023-09-27T00:58:38.283Z,99410.30
2023-09-27T01:01:07.652Z,99406.89
2023-09-27T01:03:36.570Z,99405.36
2023-09-27T01:06:05.632Z,99407.16
2023-09-27T01:08:34.583Z,99407.02
2023-09-27T01:11:05.632Z,99407.41
2023-09-27T01:13:34.675Z,99408.64
2023-09-27T01:16:04.128Z,99409.66
2023-09-27T01:18:32.755Z,99408.05
2023-09-27T01:21:02.975Z,99404.54
2023-09-27T01:23:32.091Z,99400.66
2023-09-27T01:26:02.408Z,99402.05
2023-09-27T01:28:33.102Z,99400.80
2023-09-27T01:31:01.639Z,99397.46
2023-09-27T01:33:30.951Z,99401.16
2023-09-27T01:36:01.280Z,99398.88
2023-09-27T01:38:30.089Z,99393.98
2023-09-27T01:40:59.054Z,99397.46
2023-09-27T01:43:28.336Z,99401.14
2023-09-27T01:45:56.901Z,99398.66
2023-09-27T01:48:25.611Z,99400.39
2023-09-27T01:50:57.258Z,99401.25
2023-09-27T01:53:26.987Z,99398.78
2023-09-27T01:55:56.156Z,99395.64
2023-09-27T01:58:25.843Z,99397.74
2023-09-27T02:00:54.681Z,99398.13
2023-09-27T02:03:23.518Z,99399.05
2023-09-27T02:05:54.292Z,99399.05
2023-09-27T02:08:22.940Z,99400.27
2023-09-27T02:10:53.974Z,99397.46
2023-09-27T02:13:22.572Z,99396.77
2023-09-27T02:15:51.137Z,99396.39
2023-09-27T02:18:20.215Z,99397.25
2023-09-27T02:20:48.772Z,99394.08
2023-09-27T02:23:17.340Z,99393.00
2023-09-27T02:25:46.399Z,99393.69
2023-09-27T02:28:15.148Z,99392.95
2023-09-27T02:30:43.982Z,99394.68
2023-09-27T02:33:13.193Z,99397.99
2023-09-27T02:35:41.826Z,99396.23
2023-09-27T02:38:10.908Z,99398.17
2023-09-27T02:40:41.102Z,99395.54
2023-09-27T02:43:09.931Z,99394.11
2023-09-27T02:45:38.896Z,99393.41
2023-09-27T02:48:07.851Z,99390.80
2023-09-27T02:50:36.516Z,99386.61
2023-09-27T02:53:05.894Z,99388.20
2023-09-27T02:55:35.155Z,99389.94
2023-09-27T02:58:04.173Z,99387.13
2023-09-27T03:00:35.507Z,99384.67
2023-09-27T03:03:05.109Z,99386.79
2023-09-27T03:05:37.075Z,99386.10
2023-09-27T03:08:06.766Z,99384.92
2023-09-27T03:10:40.360Z,99383.95
2023-09-27T03:13:10.963Z,99384.38
2023-09-27T03:15:39.543Z,99384.79
2023-09-27T03:18:08.746Z,99387.47
2023-09-27T03:20:37.876Z,99389.41
2023-09-27T03:23:06.543Z,99391.38
2023-09-27T03:25:35.524Z,99391.74
2023-09-27T03:28:04.682Z,99392.46
2023-09-27T03:30:33.333Z,99394.04
2023-09-27T03:33:04.019Z,99392.62
2023-09-27T03:35:33.342Z,99398.77
2023-09-27T03:38:01.973Z,99400.16
2023-09-27T03:40:31.157Z,99401.38
2023-09-27T03:43:00.131Z,99404.89
2023-09-27T03:45:31.987Z,99405.10
2023-09-27T03:48:04.350Z,99404.24
2023-09-27T03:50:33.905Z,99405.30
2023-09-27T03:53:02.680Z,99406.85
2023-09-27T03:55:31.653Z,99404.77
2023-09-27T03:58:00.327Z,99403.04
2023-09-27T04:00:29.116Z,99405.30
2023-09-27T04:02:58.754Z,99410.94
2023-09-27T04:05:28.226Z,99411.33
2023-09-27T04:07:57.448Z,99409.09
2023-09-27T04:10:26.996Z,99407.71
2023-09-27T04:12:56.061Z,99405.98
2023-09-27T04:15:25.049Z,99407.54
2023-09-27T04:17:53.882Z,99404.21
2023-09-27T04:20:23.266Z,99406.83
2023-09-27T04:22:51.913Z,99407.71
2023-09-27T04:25:22.358Z,99408.92
2023-09-27T04:27:51.923Z,99410.66
2023-09-27T04:30:23.515Z,99411.69
2023-09-27T04:32:53.202Z,99408.17
2023-09-27T04:35:23.047Z,99407.80
2023-09-27T04:37:52.145Z,99409.34
2023-09-27T04:40:21.323Z,99406.71
2023-09-27T04:42:50.471Z,99410.73
2023-09-27T04:45:19.481Z,99414.94
2023-09-27T04:47:48.185Z,99416.69
2023-09-27T04:50:17.485Z,99419.30
2023-09-27T04:52:46.719Z,99419.48
2023-09-27T04:55:16.412Z,99423.85
2023-09-27T04:57:45.349Z,99421.59
2023-09-27T05:00:21.271Z,99421.23
2023-09-27T05:02:54.015Z,99424.52
2023-09-27T05:05:23.529Z,99426.08
2023-09-27T05:08:06.509Z,99426.07
2023-09-27T05:10:46.299Z,99429.40
2023-09-27T05:13:16.640Z,99426.56
2023-09-27T05:15:51.287Z,99428.28
2023-09-27T05:18:24.182Z,99431.42
2023-09-27T05:20:53.041Z,99434.94
2023-09-27T05:23:24.999Z,99435.63
2023-09-27T05:25:53.590Z,99437.67
2023-09-27T05:28:22.247Z,99437.25
2023-09-27T05:30:53.299Z,99435.59
2023-09-27T05:33:22.186Z,99435.31
2023-09-27T05:35:51.696Z,99439.26
2023-09-27T05:38:21.993Z,99443.23
2023-09-27T05:40:50.813Z,99449.86
2023-09-27T05:43:19.445Z,99451.72
2023-09-27T05:45:50.204Z,99455.85
2023-09-27T05:48:18.929Z,99461.91
2023-09-27T05:50:51.630Z,99462.49
2023-09-27T05:53:21.078Z,99464.08
2023-09-27T05:55:50.036Z,99467.47
2023-09-27T05:58:20.355Z,99469.45
2023-09-27T06:00:49.518Z,99467.89
2023-09-27T06:03:18.688Z,99462.36
2023-09-27T06:05:47.809Z,99467.10
2023-09-27T06:08:16.755Z,99466.19
2023-09-27T06:10:45.509Z,99467.45
2023-09-27T06:13:14.355Z,99468.88
2023-09-27T06:15:43.520Z,99478.15
2023-09-27T06:18:13.804Z,99482.36
2023-09-27T06:20:43.378Z,99485.97
2023-09-27T06:23:12.417Z,99483.52
2023-09-27T06:25:45.009Z,99488.38
2023-09-27T06:28:17.338Z,99492.23
2023-09-27T06:30:45.877Z,99492.46
2023-09-27T06:33:15.670Z,99496.73
2023-09-27T06:35:44.357Z,99501.55
2023-09-27T06:38:15.158Z,99506.23
2023-09-27T06:40:44.285Z,99507.04
2023-09-27T06:43:12.854Z,99507.73
2023-09-27T06:45:41.952Z,99510.70
2023-09-27T06:48:11.323Z,99516.36
2023-09-27T06:50:43.462Z,99520.52
2023-09-27T06:53:23.519Z,99519.23
2023-09-27T06:55:55.493Z,99524.80
2023-09-27T06:58:24.957Z,99526.56
2023-09-27T07:00:54.093Z,99530.82
2023-09-27T07:03:27.003Z,99534.54
2023-09-27T07:05:56.261Z,99541.80
2023-09-27T07:08:24.947Z,99543.90
2023-09-27T07:10:53.520Z,99544.74
2023-09-27T07:13:22.692Z,99545.15
2023-09-27T07:15:52.292Z,99543.98
2023-09-27T07:18:21.348Z,99547.54
2023-09-27T07:20:51.840Z,99549.36
2023-09-27T07:23:21.955Z,99549.98
2023-09-27T07:25:51.079Z,99546.98
2023-09-27T07:28:19.682Z,99550.27
2023-09-27T07:30:48.626Z,99549.52
2023-09-27T07:33:19.009Z,99553.17
2023-09-27T07:35:52.607Z,99554.54
2023-09-27T07:38:22.249Z,99558.05
2023-09-27T07:40:50.857Z,99566.95
2023-09-27T07:43:20.094Z,99570.63
2023-09-27T07:45:49.339Z,99575.19
2023-09-27T07:48:23.022Z,99578.77
2023-09-27T07:50:55.129Z,99581.73
2023-09-27T07:53:24.447Z,99581.52
2023-09-27T07:55:55.242Z,99582.63
2023-09-27T07:58:33.340Z,99584.67
2023-09-27T08:01:12.096Z,99588.45
2023-09-27T08:03:46.966Z,99593.13
2023-09-27T08:06:24.982Z,99589.13
2023-09-27T08:09:00.642Z,99588.14
2023-09-27T08:11:34.257Z,99590.79
2023-09-27T08:14:06.358Z,99593.15
2023-09-27T08:16:37.739Z,99593.05
2023-09-27T08:19:11.631Z,99594.26
2023-09-27T08:21:42.331Z,99588.81
2023-09-27T08:24:11.962Z,99583.15
2023-09-27T08:26:41.542Z,99578.83
2023-09-27T08:29:11.722Z,99580.56
2023-09-27T08:31:42.158Z,99581.12
2023-09-27T08:34:15.420Z,99580.63
2023-09-27T08:36:45.533Z,99577.45
2023-09-27T08:39:16.314Z,99577.22
2023-09-27T08:41:45.772Z,99581.63
2023-09-27T08:44:16.179Z,99580.94
2023-09-27T08:46:47.556Z,99578.03
2023-09-27T08:49:20.965Z,99578.84
2023-09-27T08:51:53.069Z,99580.56
2023-09-27T08:54:34.154Z,99581.07
2023-09-27T08:57:19.300Z,99579.38
2023-09-27T08:59:53.534Z,99577.43
2023-09-27T09:02:32.880Z,99570.08
2023-09-27T09:05:07.648Z,99569.02
2023-09-27T09:07:40.261Z,99566.46
2023-09-27T09:10:17.701Z,99566.41
2023-09-27T09:12:48.690Z,99564.88
2023-09-27T09:15:42.997Z,99565.13
2023-09-27T09:18:16.581Z,99567.73
2023-09-27T09:21:01.523Z,99571.53
2023-09-27T09:23:35.870Z,99572.40
2023-09-27T09:26:09.443Z,99573.73
2023-09-27T09:28:57.946Z,99572.18
2023-09-27T09:31:32.524Z,99567.64
2023-09-27T09:34:04.625Z,99562.06
2023-09-27T09:36:33.816Z,99559.13
2023-09-27T09:39:18.859Z,99556.81
2023-09-27T09:41:49.433Z,99558.46
2023-09-27T09:44:21.290Z,99558.14
2023-09-27T09:46:51.153Z,99557.64
2023-09-27T09:49:20.344Z,99556.54
2023-09-27T09:51:51.070Z,99557.18
2023-09-27T09:55:11.096Z,99556.39
2023-09-27T09:57:52.723Z,99549.17
2023-09-27T10:00:28.772Z,99546.29
2023-09-27T10:03:06.273Z,99546.19
2023-09-27T10:05:39.851Z,99543.36
2023-09-27T10:08:09.401Z,99536.98
2023-09-27T10:10:38.893Z,99535.49
2023-09-27T10:13:10.912Z,99531.11
2023-09-27T10:15:42.307Z,99528.87
2023-09-27T10:18:38.629Z,99524.96
2023-09-27T10:21:10.968Z,99520.10
2023-09-27T10:23:48.732Z,99517.48
2023-09-27T10:26:27.992Z,99516.43
2023-09-27T10:29:06.115Z,99513.15
2023-09-27T10:31:40.348Z,99510.73
2023-09-27T10:34:27.268Z,99507.32
2023-09-27T10:37:17.268Z,99505.45
2023-09-27T10:40:20.973Z,99510.46
2023-09-27T10:42:50.430Z,99502.22
2023-09-27T10:45:19.141Z,99501.16
2023-09-27T10:47:51.342Z,99500.65
2023-09-27T10:50:30.916Z,99494.32
2023-09-27T10:53:00.711Z,99494.45
2023-09-27T10:55:39.882Z,99495.05
2023-09-27T10:58:09.031Z,99488.73
2023-09-27T11:00:53.057Z,99479.50
2023-09-27T11:03:22.828Z,99480.30
2023-09-27T11:05:52.887Z,99479.37
2023-09-27T11:08:24.260Z,99475.69
2023-09-27T11:10:54.566Z,99476.08
2023-09-27T11:13:23.472Z,99473.34
2023-09-27T11:15:52.495Z,99469.19
2023-09-27T11:18:21.432Z,99462.20
2023-09-27T11:20:51.273Z,99459.48
2023-09-27T11:23:22.426Z,99451.50
2023-09-27T11:25:51.620Z,99449.39
2023-09-27T11:28:20.218Z,99442.64
2023-09-27T11:30:58.271Z,99439.24
2023-09-27T11:33:34.130Z,99435.80
2023-09-27T11:36:07.048Z,99431.86
2023-09-27T11:38:36.401Z,99430.97
2023-09-27T11:41:15.814Z,99425.88
2023-09-27T11:43:45.549Z,99428.72
2023-09-27T11:46:29.485Z,99423.19
2023-09-27T11:49:09.559Z,99423.77
2023-09-27T11:51:39.028Z,99419.26
2023-09-27T11:54:08.086Z,99414.11
2023-09-27T11:56:37.897Z,99420.09
2023-09-27T11:59:07.165Z,99418.78
2023-09-27T12:01:36.039Z,99414.06
2023-09-27T12:04:06.638Z,99407.70
2023-09-27T12:06:38.052Z,99401.23
2023-09-27T12:09:06.855Z,99401.52
2023-09-27T12:11:36.684Z,99403.58
2023-09-27T12:14:05.883Z,99399.42
2023-09-27T12:16:34.480Z,99394.49
2023-09-27T12:19:06.131Z,99392.32
2023-09-27T12:21:39.462Z,99382.02
2023-09-27T12:24:09.377Z,99379.84
2023-09-27T12:26:38.340Z,99381.55
2023-09-27T12:29:07.958Z,99375.67
2023-09-27T12:31:36.589Z,99374.06
2023-09-27T12:34:05.448Z,99373.52
2023-09-27T12:36:34.188Z,99371.36
2023-09-27T12:39:04.083Z,99368.06
2023-09-27T12:41:33.115Z,99364.39
2023-09-27T12:44:02.308Z,99361.20
2023-09-27T12:46:31.159Z,99359.79
2023-09-27T12:49:00.741Z,99354.34
2023-09-27T12:51:38.991Z,99355.80
2023-09-27T12:54:16.481Z,99355.55
2023-09-27T12:56:45.137Z,99350.79
2023-09-27T12:59:13.733Z,99350.98
2023-09-27T13:01:43.048Z,99348.39
2023-09-27T13:04:12.294Z,99342.73
2023-09-27T13:06:41.008Z,99341.30
2023-09-27T13:09:11.751Z,99339.41
2023-09-27T13:11:40.328Z,99337.52
2023-09-27T13:14:10.057Z,99334.60
2023-09-27T13:16:39.506Z,99329.97
2023-09-27T13:19:09.560Z,99328.00
2023-09-27T13:21:38.369Z,99325.59
2023-09-27T13:24:09.958Z,99326.30
2023-09-27T13:26:38.662Z,99326.42
2023-09-27T13:29:08.413Z,99324.63
2023-09-27T13:31:38.247Z,99325.59
2023-09-27T13:34:11.766Z,99319.58
2023-09-27T13:36:41.791Z,99316.64
2023-09-27T13:39:18.827Z,99313.22
2023-09-27T13:41:48.390Z,99314.66
2023-09-27T13:44:17.139Z,99308.98
2023-09-27T13:46:45.827Z,99308.23
2023-09-27T13:49:22.117Z,99302.80
2023-09-27T13:51:50.723Z,99305.92
2023-09-27T13:54:22.926Z,99299.24
2023-09-27T13:56:51.743Z,99299.58
2023-09-27T13:59:23.994Z,99296.28
2023-09-27T14:01:56.794Z,99290.98
2023-09-27T14:04:26.075Z,99288.99
2023-09-27T14:06:55.603Z,99287.84
2023-09-27T14:09:24.444Z,99287.36
2023-09-27T14:11:53.973Z,99282.83
2023-09-27T14:14:23.149Z,99278.15
2023-09-27T14:16:51.823Z,99278.52
2023-09-27T14:19:22.013Z,99276.90
2023-09-27T14:21:50.829Z,99272.75
2023-09-27T14:24:20.614Z,99270.49
2023-09-27T14:26:51.620Z,99265.94
2023-09-27T14:29:29.735Z,99263.19
2023-09-27T14:32:09.084Z,99265.70
2023-09-27T14:37:09.894Z,99264.08
2023-09-27T14:39:38.837Z,99264.98
2023-09-27T14:42:11.249Z,99263.71
2023-09-27T14:44:40.222Z,99262.08
2023-09-27T14:47:09.181Z,99263.96
2023-09-27T14:49:41.113Z,99263.03
2023-09-27T14:52:09.799Z,99264.00
2023-09-27T14:54:38.426Z,99265.71
2023-09-27T14:57:08.401Z,99261.73
2023-09-27T14:59:37.148Z,99258.77
2023-09-27T15:02:05.741Z,99255.96
2023-09-27T15:04:34.774Z,99257.08
2023-09-27T15:07:04.201Z,99251.47
2023-09-27T15:09:32.716Z,99255.15
2023-09-27T15:12:03.034Z,99254.65
2023-09-27T15:14:31.642Z,99255.71
2023-09-27T15:17:02.659Z,99255.20
2023-09-27T15:19:31.881Z,99258.01
2023-09-27T15:22:00.748Z,99257.11
2023-09-27T15:24:29.956Z,99255.33
2023-09-27T15:26:59.218Z,99252.15
2023-09-27T15:29:28.291Z,99253.05
2023-09-27T15:31:56.917Z,99253.56
2023-09-27T15:34:25.956Z,99250.57
2023-09-27T15:36:56.094Z,99250.92
2023-09-27T15:39:25.695Z,99246.81
2023-09-27T15:41:55.069Z,99249.48
2023-09-27T15:44:23.722Z,99247.23
2023-09-27T15:46:53.033Z,99251.45
2023-09-27T15:49:21.951Z,99255.48
2023-09-27T15:51:50.566Z,99251.55
2023-09-27T15:54:19.717Z,99250.55
2023-09-27T15:56:48.627Z,99249.21
2023-09-27T15:59:18.096Z,99252.63
2023-09-27T16:01:47.365Z,99252.70
2023-09-27T16:04:16.450Z,99253.49
2023-09-27T16:06:45.090Z,99254.27
2023-09-27T16:09:16.873Z,99255.59
2023-09-27T16:11:46.229Z,99255.65
2023-09-27T16:14:15.535Z,99248.65
2023-09-27T16:16:44.476Z,99248.20
2023-09-27T16:19:13.502Z,99248.10
2023-09-27T16:21:43.138Z,99246.61
2023-09-27T16:24:13.167Z,99244.75
2023-09-27T16:26:42.798Z,99249.08
2023-09-27T16:29:11.811Z,99250.46
2023-09-27T16:31:44.028Z,99248.16
2023-09-27T16:34:13.465Z,99245.80
2023-09-27T16:36:43.999Z,99246.08
2023-09-27T16:39:15.419Z,99239.26
2023-09-27T16:41:44.138Z,99237.38
2023-09-27T16:44:13.105Z,99238.47
2023-09-27T16:46:41.837Z,99238.61
2023-09-27T16:49:11.182Z,99238.23
2023-09-27T16:51:39.983Z,99235.05
2023-09-27T16:54:10.933Z,99237.02
2023-09-27T16:56:39.711Z,99238.39
2023-09-27T16:59:08.440Z,99236.93
2023-09-27T17:01:39.485Z,99241.82
2023-09-27T17:04:21.972Z,99243.35
2023-09-27T17:07:20.431Z,99243.14
2023-09-27T17:10:13.599Z,99242.44
2023-09-27T17:13:04.595Z,99244.20
2023-09-27T17:15:56.107Z,99244.70
2023-09-27T17:18:59.866Z,99245.91
2023-09-27T17:21:38.494Z,99248.17
2023-09-27T17:24:21.826Z,99244.40
2023-09-27T17:27:22.612Z,99245.11
2023-09-27T17:30:14.209Z,99244.80
2023-09-27T17:32:56.192Z,99241.42
2023-09-27T17:35:37.427Z,99241.95
2023-09-27T17:38:33.882Z,99241.21
2023-09-27T17:41:28.908Z,99239.09
2023-09-27T17:44:14.706Z,99239.41
2023-09-27T17:46:46.820Z,99241.26
2023-09-27T17:49:16.981Z,99238.16
2023-09-27T17:51:46.563Z,99240.05
2023-09-27T17:54:15.127Z,99241.93
2023-09-27T17:56:44.178Z,99242.41
2023-09-27T17:59:14.951Z,99236.73
2023-09-27T18:01:44.238Z,99238.99
2023-09-27T18:04:13.252Z,99238.48
2023-09-27T18:06:42.002Z,99240.71
2023-09-27T18:09:10.600Z,99235.86
2023-09-27T18:11:39.467Z,99240.37
2023-09-27T18:14:08.219Z,99241.52
2023-09-27T18:16:36.970Z,99243.81
2023-09-27T18:19:05.731Z,99247.34
2023-09-27T18:21:34.847Z,99243.08
2023-09-27T18:24:04.640Z,99243.02
2023-09-27T18:26:33.529Z,99249.41
2023-09-27T18:29:05.810Z,99247.66
2023-09-27T18:31:34.823Z,99247.02
2023-09-27T18:34:03.889Z,99251.60
2023-09-27T18:36:34.607Z,99249.14
2023-09-27T18:39:03.357Z,99252.63
2023-09-27T18:41:31.867Z,99249.73
2023-09-27T18:44:00.849Z,99248.02
2023-09-27T18:46:29.994Z,99247.52
2023-09-27T18:48:58.739Z,99247.55
2023-09-27T18:51:27.810Z,99246.61
2023-09-27T18:53:56.559Z,99248.14
2023-09-27T18:56:25.171Z,99251.55
2023-09-27T18:58:59.936Z,99252.69
2023-09-27T19:01:30.215Z,99250.52
2023-09-27T19:04:03.026Z,99249.23
2023-09-27T19:06:33.696Z,99248.61
2023-09-27T19:09:05.643Z,99249.20
2023-09-27T19:11:37.216Z,99247.84
2023-09-27T19:14:07.187Z,99252.85
2023-09-27T19:16:36.711Z,99249.15
2023-09-27T19:19:08.446Z,99247.18
2023-09-27T19:21:37.680Z,99244.14
2023-09-27T19:24:06.887Z,99243.10
2023-09-27T19:26:41.212Z,99241.35
2023-09-27T19:29:10.341Z,99240.70
2023-09-27T19:31:39.439Z,99243.20
2023-09-27T19:34:08.717Z,99241.79
2023-09-27T19:36:42.408Z,99242.48
2023-09-27T19:39:15.988Z,99239.33
2023-09-27T19:41:45.472Z,99235.98
2023-09-27T19:44:14.392Z,99239.67
2023-09-27T19:46:44.242Z,99235.25
2023-09-27T19:49:13.956Z,99233.42
2023-09-27T19:51:43.394Z,99231.53
2023-09-27T19:54:12.003Z,99227.34
2023-09-27T19:56:43.599Z,99228.59
2023-09-27T19:59:12.420Z,99226.83
2023-09-27T20:01:41.326Z,99231.15
2023-09-27T20:04:13.007Z,99229.74
2023-09-27T20:06:43.327Z,99226.74
2023-09-27T20:09:12.478Z,99225.52
2023-09-27T20:11:43.467Z,99222.70
2023-09-27T20:14:11.999Z,99223.05
2023-09-27T20:16:41.130Z,99225.48
2023-09-27T20:19:10.647Z,99224.64
2023-09-27T20:21:39.384Z,99221.93
2023-09-27T20:24:08.543Z,99220.30
2023-09-27T20:26:37.274Z,99219.30
2023-09-27T20:29:06.035Z,99215.28
2023-09-27T20:31:35.517Z,99218.35
2023-09-27T20:34:06.066Z,99219.14
2023-09-27T20:36:34.655Z,99219.00
2023-09-27T20:39:04.130Z,99217.33
2023-09-27T20:41:32.724Z,99217.95
2023-09-27T20:44:01.310Z,99218.02
2023-09-27T20:46:33.775Z,99213.89
2023-09-27T20:49:03.317Z,99212.04
2023-09-27T20:51:32.514Z,99209.59
2023-09-27T20:54:01.583Z,99207.52
2023-09-27T20:56:30.608Z,99211.44
2023-09-27T20:58:59.922Z,99207.83
2023-09-27T21:01:37.088Z,99211.08
2023-09-27T21:04:06.525Z,99209.75
2023-09-27T21:06:35.591Z,99208.30
2023-09-27T21:09:05.843Z,99207.02
2023-09-27T21:11:34.722Z,99205.71
2023-09-27T21:14:04.149Z,99205.67
2023-09-27T21:16:33.957Z,99206.35
2023-09-27T21:19:03.489Z,99202.80
2023-09-27T21:21:33.386Z,99200.50
2023-09-27T21:24:02.028Z,99198.91
2023-09-27T21:26:31.196Z,99194.70
2023-09-27T21:29:00.247Z,99195.13
2023-09-27T21:31:29.043Z,99195.23
2023-09-27T21:34:00.490Z,99196.91
2023-09-27T21:36:29.167Z,99193.73
2023-09-27T21:38:57.901Z,99196.33
2023-09-27T21:41:27.107Z,99199.95
2023-09-27T21:43:55.908Z,99199.20
2023-09-27T21:46:24.611Z,99198.96
2023-09-27T21:48:54.826Z,99196.23
2023-09-27T21:51:24.175Z,99191.55
2023-09-27T21:53:52.912Z,99191.59
2023-09-27T21:56:21.994Z,99196.20
2023-09-27T21:58:51.778Z,99199.80
2023-09-27T22:01:23.469Z,99198.95
2023-09-27T22:03:52.897Z,99200.27
2023-09-27T22:06:21.716Z,99200.02
2023-09-27T22:08:50.679Z,99197.10
2023-09-27T22:11:20.105Z,99192.61
2023-09-27T22:13:51.726Z,99192.97
2023-09-27T22:16:23.302Z,99192.98
2023-09-27T22:18:52.588Z,99192.65
2023-09-27T22:21:38.880Z,99188.65
2023-09-27T22:24:22.531Z,99188.16
2023-09-27T22:26:52.814Z,99185.00
2023-09-27T22:29:22.053Z,99184.64
2023-09-27T22:31:50.697Z,99184.27
2023-09-27T22:34:38.845Z,99180.01
2023-09-27T22:37:10.782Z,99181.14
2023-09-27T22:39:41.822Z,99181.23
2023-09-27T22:42:21.915Z,99181.34
2023-09-27T22:44:51.170Z,99178.04
2023-09-27T22:47:20.235Z,99174.56
2023-09-27T22:49:49.596Z,99174.21
2023-09-27T22:52:18.445Z,99172.80
2023-09-27T22:54:57.263Z,99175.64
2023-09-27T22:57:26.754Z,99176.73
2023-09-27T22:59:55.884Z,99177.64
2023-09-27T23:02:24.415Z,99173.98
2023-09-27T23:04:53.396Z,99172.41
2023-09-27T23:07:24.109Z,99171.17
2023-09-27T23:10:04.673Z,99169.40
2023-09-27T23:12:37.419Z,99169.21
2023-09-27T23:15:13.764Z,99169.23
2023-09-27T23:18:01.881Z,99168.52
2023-09-27T23:20:32.373Z,99167.66
2023-09-27T23:23:08.817Z,99162.42
2023-09-27T23:25:47.316Z,99161.70
2023-09-27T23:28:39.713Z,99159.77
2023-09-27T23:31:12.023Z,99161.34
2023-09-27T23:33:45.331Z,99159.77
2023-09-27T23:36:25.159Z,99158.91
2023-09-27T23:38:59.111Z,99162.91
2023-09-27T23:41:31.433Z,99164.84
2023-09-27T23:44:10.091Z,99165.19
2023-09-27T23:46:40.119Z,99163.45
2023-09-27T23:49:17.952Z,99162.77
2023-09-27T23:51:47.440Z,99163.83
2023-09-27T23:54:19.832Z,99160.00
2023-09-27T23:56:49.452Z,99159.50
2023-09-27T23:59:31.512Z,99157.95
